Time;durP1;ratioP1;P1;durP2;ratioP2;P2;SDS_P1;SDS_P2;PMS_P1;PMS_P2;Temp;Humidity;BMP_temperature;BMP_pressure;BME280_temperature;BME280_humidity;BME280_pressure;Samples;Min_cycle;Max_cycle;Signal;HPM_P1;HPM_P2
2020/03/21 00:01:50;;;;;;;10.2;8;;;;;;;;;;;;;
2020/03/21 00:04:15;;;;;;;8.8;7.7;;;;;;;;;;;;;
2020/03/21 00:06:40;;;;;;;11.4;7.5;;;;;;;;;;;;;
2020/03/21 00:09:05;;;;;;;9.5;6.4;;;;;;;;;;;;;
2020/03/21 00:11:31;;;;;;;10;6.6;;;;;;;;;;;;;
2020/03/21 00:13:56;;;;;;;10.2;6.5;;;;;;;;;;;;;
2020/03/21 00:16:21;;;;;;;10.3;6.7;;;;;;;;;;;;;
2020/03/21 00:18:46;;;;;;;9.8;6.5;;;;;;;;;;;;;
2020/03/21 00:21:11;;;;;;;10.8;6.6;;;;;;;;;;;;;
2020/03/21 00:23:36;;;;;;;7.8;5.9;;;;;;;;;;;;;
2020/03/21 00:26:01;;;;;;;10.5;6.2;;;;;;;;;;;;;
2020/03/21 00:28:26;;;;;;;9.9;6.9;;;;;;;;;;;;;
2020/03/21 00:30:51;;;;;;;10.5;6.7;;;;;;;;;;;;;
2020/03/21 00:33:17;;;;;;;10.2;6.6;;;;;;;;;;;;;
2020/03/21 00:35:42;;;;;;;10.9;7.3;;;;;;;;;;;;;
2020/03/21 00:38:07;;;;;;;8.6;5.6;;;;;;;;;;;;;
2020/03/21 00:40:32;;;;;;;11.2;7.3;;;;;;;;;;;;;
2020/03/21 00:42:58;;;;;;;10.3;6.9;;;;;;;;;;;;;
2020/03/21 00:45:23;;;;;;;9.5;5.8;;;;;;;;;;;;;
2020/03/21 00:47:48;;;;;;;10;6.6;;;;;;;;;;;;;
2020/03/21 00:50:13;;;;;;;11;6.3;;;;;;;;;;;;;
2020/03/21 00:52:38;;;;;;;7.7;6;;;;;;;;;;;;;
2020/03/21 00:55:04;;;;;;;9.6;7.4;;;;;;;;;;;;;
2020/03/21 00:57:29;;;;;;;10.7;6.8;;;;;;;;;;;;;
2020/03/21 00:59:54;;;;;;;8.5;6.2;;;;;;;;;;;;;
2020/03/21 01:02:19;;;;;;;8.4;6.3;;;;;;;;;;;;;
2020/03/21 01:04:44;;;;;;;6.9;6;;;;;;;;;;;;;
2020/03/21 01:07:09;;;;;;;8.1;5.9;;;;;;;;;;;;;
2020/03/21 01:09:36;;;;;;;7.3;5.7;;;;;;;;;;;;;
2020/03/21 01:12:01;;;;;;;10.3;6.8;;;;;;;;;;;;;
2020/03/21 01:14:27;;;;;;;12.4;7.3;;;;;;;;;;;;;
2020/03/21 01:16:52;;;;;;;7.4;5.9;;;;;;;;;;;;;
2020/03/21 01:19:17;;;;;;;9;6.8;;;;;;;;;;;;;
2020/03/21 01:21:42;;;;;;;10.5;6.3;;;;;;;;;;;;;
2020/03/21 01:24:07;;;;;;;8.3;6.3;;;;;;;;;;;;;
2020/03/21 01:26:34;;;;;;;9.9;6.6;;;;;;;;;;;;;
2020/03/21 01:29:05;;;;;;;10.3;6.9;;;;;;;;;;;;;
2020/03/21 01:31:25;;;;;;;9.9;7.4;;;;;;;;;;;;;
2020/03/21 01:36:13;;;;;;;8.9;6.6;;;;;;;;;;;;;
2020/03/21 01:38:38;;;;;;;9;7.1;;;;;;;;;;;;;
2020/03/21 01:41:03;;;;;;;11.2;6.6;;;;;;;;;;;;;
2020/03/21 01:43:28;;;;;;;8.5;6.7;;;;;;;;;;;;;
2020/03/21 01:45:56;;;;;;;10.3;6.7;;;;;;;;;;;;;
2020/03/21 01:48:21;;;;;;;9;6.6;;;;;;;;;;;;;
2020/03/21 01:50:46;;;;;;;10;7;;;;;;;;;;;;;
2020/03/21 01:53:12;;;;;;;8.3;6.6;;;;;;;;;;;;;
2020/03/21 01:55:36;;;;;;;11.2;7.3;;;;;;;;;;;;;
2020/03/21 01:58:01;;;;;;;10;6.6;;;;;;;;;;;;;
2020/03/21 02:00:26;;;;;;;8.7;6.5;;;;;;;;;;;;;
2020/03/21 02:02:52;;;;;;;8.2;6.9;;;;;;;;;;;;;
2020/03/21 02:05:17;;;;;;;9.4;6.8;;;;;;;;;;;;;
2020/03/21 02:07:42;;;;;;;10.1;6.7;;;;;;;;;;;;;
2020/03/21 02:10:07;;;;;;;8.7;6.4;;;;;;;;;;;;;
2020/03/21 02:12:32;;;;;;;8.8;7;;;;;;;;;;;;;
2020/03/21 02:14:57;;;;;;;11.2;7.4;;;;;;;;;;;;;
2020/03/21 02:17:22;;;;;;;11.8;7.4;;;;;;;;;;;;;
2020/03/21 02:19:47;;;;;;;9.4;6.9;;;;;;;;;;;;;
2020/03/21 02:22:13;;;;;;;8.6;6.8;;;;;;;;;;;;;
2020/03/21 02:24:38;;;;;;;9.3;6.9;;;;;;;;;;;;;
2020/03/21 02:27:03;;;;;;;9.2;6.8;;;;;;;;;;;;;
2020/03/21 02:29:28;;;;;;;9.1;7.1;;;;;;;;;;;;;
2020/03/21 02:31:53;;;;;;;9.2;6.6;;;;;;;;;;;;;
2020/03/21 02:34:19;;;;;;;9.4;6.4;;;;;;;;;;;;;
2020/03/21 02:36:44;;;;;;;9;6.3;;;;;;;;;;;;;
2020/03/21 02:39:09;;;;;;;8.9;6.9;;;;;;;;;;;;;
2020/03/21 02:41:34;;;;;;;7.8;6.5;;;;;;;;;;;;;
2020/03/21 02:43:59;;;;;;;10;6.5;;;;;;;;;;;;;
2020/03/21 02:46:24;;;;;;;8.1;6.5;;;;;;;;;;;;;
2020/03/21 02:48:49;;;;;;;9.7;7;;;;;;;;;;;;;
2020/03/21 02:51:15;;;;;;;11.4;6.8;;;;;;;;;;;;;
2020/03/21 02:53:39;;;;;;;11.8;6.8;;;;;;;;;;;;;
2020/03/21 02:56:05;;;;;;;7.7;6.1;;;;;;;;;;;;;
2020/03/21 02:58:30;;;;;;;6.9;5.8;;;;;;;;;;;;;
2020/03/21 03:00:55;;;;;;;7.9;6.2;;;;;;;;;;;;;
2020/03/21 03:03:20;;;;;;;8.7;6.6;;;;;;;;;;;;;
2020/03/21 03:05:45;;;;;;;8.8;6.7;;;;;;;;;;;;;
2020/03/21 03:08:10;;;;;;;10.8;6.6;;;;;;;;;;;;;
2020/03/21 03:10:35;;;;;;;8.9;6.7;;;;;;;;;;;;;
2020/03/21 03:13:01;;;;;;;9.9;7.3;;;;;;;;;;;;;
2020/03/21 03:15:26;;;;;;;8.3;6.3;;;;;;;;;;;;;
2020/03/21 03:17:51;;;;;;;8.9;6.4;;;;;;;;;;;;;
2020/03/21 03:20:16;;;;;;;7.7;6.6;;;;;;;;;;;;;
2020/03/21 03:22:42;;;;;;;9.4;6.5;;;;;;;;;;;;;
2020/03/21 03:25:07;;;;;;;7.4;6.3;;;;;;;;;;;;;
2020/03/21 03:27:32;;;;;;;7.6;6.2;;;;;;;;;;;;;
2020/03/21 03:29:57;;;;;;;8.2;6.2;;;;;;;;;;;;;
2020/03/21 03:32:22;;;;;;;8.5;6;;;;;;;;;;;;;
2020/03/21 03:34:47;;;;;;;10.7;6.7;;;;;;;;;;;;;
2020/03/21 03:37:13;;;;;;;9.6;6.7;;;;;;;;;;;;;
2020/03/21 03:39:38;;;;;;;9;6.5;;;;;;;;;;;;;
2020/03/21 03:42:03;;;;;;;10.7;7;;;;;;;;;;;;;
2020/03/21 03:44:29;;;;;;;10.9;7.6;;;;;;;;;;;;;
2020/03/21 03:46:54;;;;;;;9.8;8.4;;;;;;;;;;;;;
2020/03/21 03:49:19;;;;;;;10.4;7.9;;;;;;;;;;;;;
2020/03/21 03:51:44;;;;;;;11.4;8.4;;;;;;;;;;;;;
2020/03/21 03:54:10;;;;;;;12.2;8.8;;;;;;;;;;;;;
2020/03/21 03:56:35;;;;;;;10.9;9.2;;;;;;;;;;;;;
2020/03/21 03:59:00;;;;;;;11.9;8.8;;;;;;;;;;;;;
2020/03/21 04:02:30;;;;;;;11.5;8.3;;;;;;;9.19;87.06152;938.2942;;;;
2020/03/21 04:04:55;;;;;;;11.7;9.1;;;;;;;9.12;87.87695;938.2766;;;;
2020/03/21 04:07:20;;;;;;;10.5;8.3;;;;;;;8.99;88.14746;938.3664;;;;
2020/03/21 04:09:45;;;;;;;13.7;9.4;;;;;;;9.02;88.5625;938.3497;;;;
2020/03/21 04:12:10;;;;;;;12.6;9.8;;;;;;;9.27;87.875;938.3203;;;;
2020/03/21 04:14:35;;;;;;;11.2;9.6;;;;;;;9.32;87.21191;938.3234;;;;
2020/03/21 04:17:00;;;;;;;11.6;9.8;;;;;;;9.34;87.17188;938.319;;;;
2020/03/21 04:19:26;;;;;;;12;10.6;;;;;;;9.37;86.63086;938.2908;;;;
2020/03/21 04:21:51;;;;;;;12.4;10.1;;;;;;;9.45;86.94531;938.2946;;;;
2020/03/21 04:24:19;;;;;;;13.7;10.7;;;;;;;9.57;86.53418;938.3008;;;;
2020/03/21 04:26:41;;;;;;;9.6;8.6;;;;;;;9.66;86.01855;938.331;;;;
2020/03/21 04:29:06;;;;;;;10.6;7.7;;;;;;;9.67;85.61914;938.3128;;;;
2020/03/21 04:31:31;;;;;;;11.3;8;;;;;;;9.74;85.12109;938.2882;;;;
2020/03/21 04:33:56;;;;;;;10.4;9;;;;;;;9.79;84.65332;938.2244;;;;
2020/03/21 04:36:21;;;;;;;12.9;9.5;;;;;;;9.73;85.13086;938.2261;;;;
2020/03/21 04:38:46;;;;;;;14.5;10.3;;;;;;;9.76;85.11523;938.2257;;;;
2020/03/21 04:41:11;;;;;;;14.7;10;;;;;;;9.71;85.13867;938.218;;;;
2020/03/21 04:43:37;;;;;;;10.4;9.2;;;;;;;9.71;85.15918;938.2227;;;;
2020/03/21 04:46:02;;;;;;;13.4;10.1;;;;;;;9.57;85.68164;938.2461;;;;
2020/03/21 04:48:27;;;;;;;14.1;11.2;;;;;;;9.59;85.91309;938.2344;;;;
2020/03/21 04:50:52;;;;;;;11.2;10;;;;;;;9.57;85.69141;938.2563;;;;
2020/03/21 04:53:17;;;;;;;13.1;10.1;;;;;;;9.4;86.31738;938.1839;;;;
2020/03/21 04:55:42;;;;;;;13.4;9.8;;;;;;;9.44;86.71387;938.1149;;;;
2020/03/21 04:58:09;;;;;;;11.4;10;;;;;;;9.34;86.64648;938.1703;;;;
2020/03/21 05:00:34;;;;;;;11.3;10.1;;;;;;;9.36;86.75391;938.1404;;;;
2020/03/21 05:03:00;;;;;;;10.4;9.3;;;;;;;9.44;86.41797;938.1791;;;;
2020/03/21 05:05:25;;;;;;;10.6;9.2;;;;;;;9.52;85.91016;938.1803;;;;
2020/03/21 05:07:50;;;;;;;12.6;8.4;;;;;;;9.6;85.34473;938.1184;;;;
2020/03/21 05:10:15;;;;;;;10.6;8.6;;;;;;;9.66;85.34473;938.183;;;;
2020/03/21 05:12:40;;;;;;;9.5;8.5;;;;;;;9.69;84.92773;938.2192;;;;
2020/03/21 05:15:06;;;;;;;10.7;8.4;;;;;;;9.69;85.14648;938.1644;;;;
2020/03/21 05:17:31;;;;;;;12.7;8.8;;;;;;;9.68;84.93945;938.1841;;;;
2020/03/21 05:19:56;;;;;;;10.6;8.4;;;;;;;9.67;85.16406;938.1912;;;;
2020/03/21 05:22:21;;;;;;;11.6;8.5;;;;;;;9.68;84.9834;938.2103;;;;
2020/03/21 05:24:46;;;;;;;10;8.8;;;;;;;9.74;84.99609;938.2477;;;;
2020/03/21 05:27:11;;;;;;;10.7;8.5;;;;;;;9.83;84.77539;938.2292;;;;
2020/03/21 05:29:36;;;;;;;9.8;8;;;;;;;;;;;;;
2020/03/21 05:32:01;;;;;;;11.7;7.8;;;;;;;;;;;;;
2020/03/21 05:34:27;;;;;;;8.5;7.7;;;;;;;;;;;;;
2020/03/21 05:36:52;;;;;;;9.4;7.7;;;;;;;;;;;;;
2020/03/21 05:39:17;;;;;;;9.3;7.6;;;;;;;;;;;;;
2020/03/21 05:41:42;;;;;;;13.5;9.9;;;;;;;;;;;;;
2020/03/21 05:44:07;;;;;;;13.2;8.3;;;;;;;;;;;;;
2020/03/21 05:46:32;;;;;;;10.1;7.9;;;;;;;;;;;;;
2020/03/21 05:48:57;;;;;;;11.2;7.7;;;;;;;;;;;;;
2020/03/21 05:51:22;;;;;;;9.5;7.3;;;;;;;;;;;;;
2020/03/21 05:53:48;;;;;;;9.5;7.4;;;;;;;;;;;;;
2020/03/21 05:56:13;;;;;;;10.3;7.1;;;;;;;;;;;;;
2020/03/21 05:58:38;;;;;;;10;7.2;;;;;;;;;;;;;
2020/03/21 06:01:03;;;;;;;9.7;7.5;;;;;;;;;;;;;
2020/03/21 06:03:28;;;;;;;8.6;7.3;;;;;;;;;;;;;
2020/03/21 06:06:28;;;;;;;8.9;7.3;;;;;;;;;;;;;
2020/03/21 06:08:19;;;;;;;9.3;7.3;;;;;;;;;;;;;
2020/03/21 06:10:48;;;;;;;8.6;7;;;;;;;;;;;;;
2020/03/21 06:13:09;;;;;;;8.1;6.8;;;;;;;;;;;;;
2020/03/21 06:15:34;;;;;;;11.8;7.3;;;;;;;;;;;;;
2020/03/21 06:17:59;;;;;;;9;7.2;;;;;;;;;;;;;
2020/03/21 06:20:24;;;;;;;7.7;6.6;;;;;;;;;;;;;
2020/03/21 06:22:50;;;;;;;8.9;6.7;;;;;;;;;;;;;
2020/03/21 06:25:15;;;;;;;8.3;6.4;;;;;;;;;;;;;
2020/03/21 06:27:40;;;;;;;9.9;7.1;;;;;;;;;;;;;
2020/03/21 06:30:05;;;;;;;9.3;6.5;;;;;;;;;;;;;
2020/03/21 06:32:30;;;;;;;7.8;6.8;;;;;;;;;;;;;
2020/03/21 06:34:55;;;;;;;10.2;6.3;;;;;;;;;;;;;
2020/03/21 06:37:20;;;;;;;9.1;6.9;;;;;;;;;;;;;
2020/03/21 06:39:46;;;;;;;9.1;6.5;;;;;;;;;;;;;
2020/03/21 06:42:11;;;;;;;9.2;7.1;;;;;;;;;;;;;
2020/03/21 06:44:36;;;;;;;7.4;6.3;;;;;;;;;;;;;
2020/03/21 06:47:01;;;;;;;8.4;6.9;;;;;;;;;;;;;
2020/03/21 06:49:26;;;;;;;7.7;6.5;;;;;;;;;;;;;
2020/03/21 06:51:51;;;;;;;10.7;7.3;;;;;;;;;;;;;
2020/03/21 06:54:16;;;;;;;9.4;7.8;;;;;;;;;;;;;
2020/03/21 06:56:41;;;;;;;8.1;6;;;;;;;;;;;;;
2020/03/21 06:59:06;;;;;;;12.8;9.8;;;;;;;;;;;;;
2020/03/21 07:01:31;;;;;;;14.1;10.4;;;;;;;;;;;;;
2020/03/21 07:03:57;;;;;;;8.1;6.9;;;;;;;;;;;;;
2020/03/21 07:06:22;;;;;;;8.3;6.2;;;;;;;;;;;;;
2020/03/21 07:08:47;;;;;;;9.8;7.1;;;;;;;;;;;;;
2020/03/21 07:11:12;;;;;;;18.7;12.9;;;;;;;;;;;;;
2020/03/21 07:13:37;;;;;;;10.3;7.2;;;;;;;;;;;;;
2020/03/21 07:16:03;;;;;;;10;7.2;;;;;;;;;;;;;
2020/03/21 07:18:27;;;;;;;9.1;7.7;;;;;;;;;;;;;
2020/03/21 07:20:53;;;;;;;10.4;7.2;;;;;;;;;;;;;
2020/03/21 07:23:18;;;;;;;8.8;7;;;;;;;;;;;;;
2020/03/21 07:25:43;;;;;;;9.5;7.7;;;;;;;;;;;;;
2020/03/21 07:28:08;;;;;;;9;7.4;;;;;;;;;;;;;
2020/03/21 07:30:33;;;;;;;8.3;7.2;;;;;;;;;;;;;
2020/03/21 07:32:58;;;;;;;10.3;7.9;;;;;;;;;;;;;
2020/03/21 07:35:23;;;;;;;9.9;7.7;;;;;;;;;;;;;
2020/03/21 07:37:48;;;;;;;8.4;7.5;;;;;;;;;;;;;
2020/03/21 07:40:14;;;;;;;9.1;7.2;;;;;;;;;;;;;
2020/03/21 07:42:39;;;;;;;7.7;6.6;;;;;;;;;;;;;
2020/03/21 07:45:04;;;;;;;7.5;6.7;;;;;;;;;;;;;
2020/03/21 07:47:29;;;;;;;11.3;6.7;;;;;;;;;;;;;
2020/03/21 07:49:54;;;;;;;8.3;6.8;;;;;;;;;;;;;
2020/03/21 07:52:19;;;;;;;8.9;7.1;;;;;;;;;;;;;
2020/03/21 07:54:45;;;;;;;9.3;6.9;;;;;;;;;;;;;
2020/03/21 07:57:10;;;;;;;9.4;7.6;;;;;;;;;;;;;
2020/03/21 07:59:35;;;;;;;8.9;8;;;;;;;;;;;;;
2020/03/21 08:02:00;;;;;;;9.4;7.2;;;;;;;;;;;;;
2020/03/21 08:04:25;;;;;;;8.4;7;;;;;;;;;;;;;
2020/03/21 08:06:50;;;;;;;8.5;5.9;;;;;;;;;;;;;
2020/03/21 08:09:15;;;;;;;7;5.7;;;;;;;;;;;;;
2020/03/21 08:11:40;;;;;;;6.3;4.6;;;;;;;;;;;;;
2020/03/21 08:14:05;;;;;;;5.3;4.8;;;;;;;;;;;;;
2020/03/21 08:16:31;;;;;;;4.7;4.2;;;;;;;;;;;;;
2020/03/21 08:18:55;;;;;;;5.7;4.2;;;;;;;;;;;;;
2020/03/21 08:21:21;;;;;;;4.4;4;;;;;;;;;;;;;
2020/03/21 08:23:46;;;;;;;4.3;3.7;;;;;;;;;;;;;
2020/03/21 08:26:11;;;;;;;4;3.6;;;;;;;;;;;;;
2020/03/21 08:28:36;;;;;;;3.6;3.2;;;;;;;;;;;;;
2020/03/21 08:31:01;;;;;;;4;3.6;;;;;;;;;;;;;
2020/03/21 08:33:26;;;;;;;5.5;4;;;;;;;;;;;;;
2020/03/21 08:35:51;;;;;;;4.4;3.5;;;;;;;;;;;;;
2020/03/21 08:38:16;;;;;;;3.3;3;;;;;;;;;;;;;
2020/03/21 08:40:41;;;;;;;3.3;3;;;;;;;;;;;;;
2020/03/21 08:43:06;;;;;;;3.9;2.7;;;;;;;;;;;;;
2020/03/21 08:45:31;;;;;;;2.9;2.6;;;;;;;;;;;;;
2020/03/21 08:47:57;;;;;;;2.7;2.5;;;;;;;;;;;;;
2020/03/21 08:50:22;;;;;;;3.2;2.9;;;;;;;;;;;;;
2020/03/21 08:52:48;;;;;;;3.1;2.5;;;;;;;;;;;;;
2020/03/21 08:55:13;;;;;;;2.6;2.1;;;;;;;;;;;;;
2020/03/21 08:57:38;;;;;;;2.5;2.2;;;;;;;;;;;;;
2020/03/21 09:00:03;;;;;;;3.2;2.3;;;;;;;;;;;;;
2020/03/21 09:02:29;;;;;;;2.7;2.2;;;;;;;;;;;;;
2020/03/21 09:04:53;;;;;;;2.4;2.2;;;;;;;;;;;;;
2020/03/21 09:07:20;;;;;;;3.7;2.3;;;;;;;;;;;;;
2020/03/21 09:09:45;;;;;;;2.4;2.1;;;;;;;;;;;;;
2020/03/21 09:12:11;;;;;;;2.4;2.2;;;;;;;;;;;;;
2020/03/21 09:14:36;;;;;;;2.2;2;;;;;;;;;;;;;
2020/03/21 09:17:01;;;;;;;2.6;2.3;;;;;;;;;;;;;
2020/03/21 09:19:26;;;;;;;2.2;2;;;;;;;;;;;;;
2020/03/21 09:21:51;;;;;;;2.7;2.3;;;;;;;;;;;;;
2020/03/21 09:24:16;;;;;;;2.8;2.6;;;;;;;;;;;;;
2020/03/21 09:26:43;;;;;;;2.8;2.4;;;;;;;;;;;;;
2020/03/21 09:29:10;;;;;;;2.5;2.3;;;;;;;;;;;;;
2020/03/21 09:31:36;;;;;;;2.9;2.6;;;;;;;;;;;;;
2020/03/21 09:34:11;;;;;;;3.1;2.8;;;;;;;;;;;;;
2020/03/21 09:36:22;;;;;;;3;2.7;;;;;;;;;;;;;
2020/03/21 09:38:47;;;;;;;2.9;2.6;;;;;;;;;;;;;
2020/03/21 09:41:12;;;;;;;3;2.7;;;;;;;;;;;;;
2020/03/21 09:43:37;;;;;;;3;2.6;;;;;;;;;;;;;
2020/03/21 09:46:03;;;;;;;3.4;3.1;;;;;;;;;;;;;
2020/03/21 09:48:28;;;;;;;4.5;3;;;;;;;;;;;;;
2020/03/21 09:50:53;;;;;;;3.8;3.4;;;;;;;;;;;;;
2020/03/21 09:53:18;;;;;;;4.5;3.8;;;;;;;;;;;;;
2020/03/21 09:55:43;;;;;;;3.6;3.3;;;;;;;;;;;;;
2020/03/21 09:58:15;;;;;;;3.6;3.3;;;;;;;;;;;;;
2020/03/21 10:00:33;;;;;;;3.4;3.1;;;;;;;;;;;;;
2020/03/21 10:02:58;;;;;;;3.6;3.3;;;;;;;;;;;;;
2020/03/21 10:05:23;;;;;;;3.5;3.2;;;;;;;;;;;;;
2020/03/21 10:07:48;;;;;;;3.6;3.3;;;;;;;;;;;;;
2020/03/21 10:10:14;;;;;;;4.5;3.7;;;;;;;;;;;;;
2020/03/21 10:12:39;;;;;;;3.2;2.9;;;;;;;;;;;;;
2020/03/21 10:15:05;;;;;;;3.1;2.8;;;;;;;;;;;;;
2020/03/21 10:17:31;;;;;;;3.1;2.8;;;;;;;;;;;;;
2020/03/21 10:19:56;;;;;;;3.4;3.1;;;;;;;;;;;;;
2020/03/21 10:22:21;;;;;;;3.5;3.2;;;;;;;;;;;;;
2020/03/21 10:24:48;;;;;;;3.1;2.8;;;;;;;;;;;;;
2020/03/21 10:27:14;;;;;;;3.2;2.9;;;;;;;;;;;;;
2020/03/21 10:29:38;;;;;;;3.2;2.9;;;;;;;;;;;;;
2020/03/21 10:32:03;;;;;;;3.7;2.8;;;;;;;;;;;;;
2020/03/21 10:34:28;;;;;;;3.3;2.7;;;;;;;;;;;;;
2020/03/21 10:36:53;;;;;;;3.2;2.8;;;;;;;;;;;;;
2020/03/21 10:39:18;;;;;;;3.9;3;;;;;;;;;;;;;
2020/03/21 10:41:43;;;;;;;3.5;3.1;;;;;;;;;;;;;
2020/03/21 10:44:09;;;;;;;3.3;3;;;;;;;;;;;;;
2020/03/21 10:46:34;;;;;;;3.4;3.1;;;;;;;;;;;;;
2020/03/21 10:48:59;;;;;;;4.2;2.8;;;;;;;;;;;;;
2020/03/21 10:51:24;;;;;;;3.4;3.1;;;;;;;;;;;;;
2020/03/21 10:53:49;;;;;;;3.9;3.3;;;;;;;;;;;;;
2020/03/21 10:56:14;;;;;;;3.9;3.4;;;;;;;;;;;;;
2020/03/21 10:58:39;;;;;;;3.6;3.3;;;;;;;;;;;;;
2020/03/21 11:01:04;;;;;;;4;3.6;;;;;;;;;;;;;
2020/03/21 11:03:29;;;;;;;3.9;3.4;;;;;;;;;;;;;
2020/03/21 11:05:55;;;;;;;4.4;3.8;;;;;;;;;;;;;
2020/03/21 11:08:20;;;;;;;4.1;3.7;;;;;;;;;;;;;
2020/03/21 11:10:45;;;;;;;4.8;4.4;;;;;;;;;;;;;
2020/03/21 11:13:10;;;;;;;4.5;4.1;;;;;;;;;;;;;
2020/03/21 11:15:35;;;;;;;4.6;4.1;;;;;;;;;;;;;
2020/03/21 11:18:00;;;;;;;4.9;4.4;;;;;;;;;;;;;
2020/03/21 11:20:25;;;;;;;4.3;3.9;;;;;;;;;;;;;
2020/03/21 11:22:50;;;;;;;4.3;3.9;;;;;;;;;;;;;
2020/03/21 11:25:16;;;;;;;4.3;3.9;;;;;;;;;;;;;
2020/03/21 11:27:41;;;;;;;4.4;4;;;;;;;;;;;;;
2020/03/21 11:30:06;;;;;;;4.6;4.2;;;;;;;;;;;;;
2020/03/21 11:32:31;;;;;;;4.4;3.9;;;;;;;;;;;;;
2020/03/21 11:34:56;;;;;;;5;4.5;;;;;;;;;;;;;
2020/03/21 11:37:21;;;;;;;4.5;3.7;;;;;;;;;;;;;
2020/03/21 11:39:46;;;;;;;4;3.7;;;;;;;;;;;;;
2020/03/21 11:42:13;;;;;;;4.5;4.1;;;;;;;;;;;;;
2020/03/21 11:44:38;;;;;;;4.5;4.1;;;;;;;;;;;;;
2020/03/21 11:47:03;;;;;;;4.2;3.8;;;;;;;;;;;;;
2020/03/21 11:49:28;;;;;;;4.3;3.9;;;;;;;;;;;;;
2020/03/21 11:51:54;;;;;;;4.2;3.8;;;;;;;;;;;;;
2020/03/21 11:54:19;;;;;;;4.1;3.8;;;;;;;;;;;;;
2020/03/21 11:56:44;;;;;;;5;4.5;;;;;;;;;;;;;
2020/03/21 11:59:09;;;;;;;4.7;4.2;;;;;;;;;;;;;
2020/03/21 12:01:34;;;;;;;4.7;4.3;;;;;;;;;;;;;
2020/03/21 12:04:05;;;;;;;5.6;5.1;;;;;;;;;;;;;
2020/03/21 12:06:25;;;;;;;5.9;5;;;;;;;;;;;;;
2020/03/21 12:08:51;;;;;;;6;5.4;;;;;;;;;;;;;
2020/03/21 12:11:15;;;;;;;6.7;5.6;;;;;;;;;;;;;
2020/03/21 12:13:40;;;;;;;6.2;5.6;;;;;;;;;;;;;
2020/03/21 12:16:05;;;;;;;5.9;5.3;;;;;;;;;;;;;
2020/03/21 12:18:30;;;;;;;6.3;5.7;;;;;;;;;;;;;
2020/03/21 12:20:55;;;;;;;6.2;5.6;;;;;;;;;;;;;
2020/03/21 12:23:20;;;;;;;6.2;5.3;;;;;;;;;;;;;
2020/03/21 12:25:46;;;;;;;5.7;5.2;;;;;;;;;;;;;
2020/03/21 12:28:11;;;;;;;5.8;5.3;;;;;;;;;;;;;
2020/03/21 12:30:36;;;;;;;6;5.4;;;;;;;;;;;;;
2020/03/21 12:33:01;;;;;;;5.9;5.4;;;;;;;;;;;;;
2020/03/21 12:35:26;;;;;;;5.9;5.4;;;;;;;;;;;;;
2020/03/21 12:37:51;;;;;;;5.8;5.2;;;;;;;;;;;;;
2020/03/21 12:40:16;;;;;;;5.5;5;;;;;;;;;;;;;
2020/03/21 12:42:41;;;;;;;5.5;5;;;;;;;;;;;;;
2020/03/21 12:45:07;;;;;;;6;5.1;;;;;;;;;;;;;
2020/03/21 12:47:32;;;;;;;5.5;5;;;;;;;;;;;;;
2020/03/21 12:49:57;;;;;;;5.8;5.3;;;;;;;;;;;;;
2020/03/21 12:52:22;;;;;;;5.8;5.2;;;;;;;;;;;;;
2020/03/21 12:54:47;;;;;;;5.5;5;;;;;;;;;;;;;
2020/03/21 12:57:15;;;;;;;5.6;5.1;;;;;;;;;;;;;
2020/03/21 12:59:38;;;;;;;5;4.5;;;;;;;;;;;;;
2020/03/21 13:02:03;;;;;;;5.3;4.8;;;;;;;;;;;;;
2020/03/21 13:04:28;;;;;;;5.8;5.1;;;;;;;;;;;;;
2020/03/21 13:06:53;;;;;;;6;4.6;;;;;;;;;;;;;
2020/03/21 13:09:19;;;;;;;5.9;5.3;;;;;;;;;;;;;
2020/03/21 13:11:44;;;;;;;5.5;5;;;;;;;;;;;;;
2020/03/21 13:14:09;;;;;;;5.3;4.7;;;;;;;;;;;;;
2020/03/21 13:16:34;;;;;;;5.6;5;;;;;;;;;;;;;
2020/03/21 13:18:59;;;;;;;5.3;4.8;;;;;;;;;;;;;
2020/03/21 13:21:24;;;;;;;5.4;4.9;;;;;;;;;;;;;
2020/03/21 13:23:49;;;;;;;5.5;5;;;;;;;;;;;;;
2020/03/21 13:26:14;;;;;;;5.8;5;;;;;;;;;;;;;
2020/03/21 13:28:39;;;;;;;5.9;5.4;;;;;;;;;;;;;
2020/03/21 13:31:05;;;;;;;5.3;4.8;;;;;;;;;;;;;
2020/03/21 13:33:30;;;;;;;5.4;4.9;;;;;;;;;;;;;
2020/03/21 13:35:55;;;;;;;5.3;4.8;;;;;;;;;;;;;
2020/03/21 13:38:20;;;;;;;5.5;5;;;;;;;;;;;;;
2020/03/21 13:40:45;;;;;;;5.3;4.6;;;;;;;;;;;;;
2020/03/21 13:43:13;;;;;;;5.3;4.8;;;;;;;;;;;;;
2020/03/21 13:45:38;;;;;;;5.2;4.7;;;;;;;;;;;;;
2020/03/21 13:48:03;;;;;;;4.6;4.2;;;;;;;;;;;;;
2020/03/21 13:50:28;;;;;;;5;4.2;;;;;;;;;;;;;
2020/03/21 13:52:53;;;;;;;4.4;4;;;;;;;;;;;;;
2020/03/21 13:55:18;;;;;;;4.7;4.1;;;;;;;;;;;;;
2020/03/21 13:57:43;;;;;;;4.7;4.3;;;;;;;;;;;;;
2020/03/21 14:00:08;;;;;;;4.7;4.2;;;;;;;;;;;;;
2020/03/21 14:02:34;;;;;;;4.7;4.2;;;;;;;;;;;;;
2020/03/21 14:04:59;;;;;;;5;4.5;;;;;;;;;;;;;
2020/03/21 14:07:24;;;;;;;4.6;4.2;;;;;;;;;;;;;
2020/03/21 14:09:49;;;;;;;5;4.5;;;;;;;;;;;;;
2020/03/21 14:12:14;;;;;;;4.5;4;;;;;;;;;;;;;
2020/03/21 14:14:40;;;;;;;5.2;4.6;;;;;;;;;;;;;
2020/03/21 14:17:04;;;;;;;5.1;4.6;;;;;;;;;;;;;
2020/03/21 14:19:29;;;;;;;4.9;4.4;;;;;;;;;;;;;
2020/03/21 14:21:54;;;;;;;4.2;3.8;;;;;;;;;;;;;
2020/03/21 14:24:20;;;;;;;4.6;4.2;;;;;;;;;;;;;
2020/03/21 14:26:45;;;;;;;4.9;4.4;;;;;;;;;;;;;
2020/03/21 14:29:10;;;;;;;4.5;4.1;;;;;;;;;;;;;
2020/03/21 14:31:36;;;;;;;4.9;4.4;;;;;;;;;;;;;
2020/03/21 14:34:01;;;;;;;6.1;4.4;;;;;;;;;;;;;
2020/03/21 14:36:26;;;;;;;5.1;4.6;;;;;;;;;;;;;
2020/03/21 14:38:51;;;;;;;5.4;3.9;;;;;;;;;;;;;
2020/03/21 14:41:16;;;;;;;4.4;3.8;;;;;;;;;;;;;
2020/03/21 14:43:41;;;;;;;4.9;4.2;;;;;;;;;;;;;
2020/03/21 14:46:07;;;;;;;4.7;4.2;;;;;;;;;;;;;
2020/03/21 14:48:33;;;;;;;4.4;3.8;;;;;;;;;;;;;
2020/03/21 14:50:58;;;;;;;4.3;3.7;;;;;;;;;;;;;
2020/03/21 14:53:23;;;;;;;4.1;3.7;;;;;;;;;;;;;
2020/03/21 14:55:49;;;;;;;4.8;4.3;;;;;;;;;;;;;
2020/03/21 14:58:15;;;;;;;4.4;4;;;;;;;;;;;;;
2020/03/21 15:00:40;;;;;;;4.8;4.3;;;;;;;;;;;;;
2020/03/21 15:03:05;;;;;;;4.8;4.1;;;;;;;;;;;;;
2020/03/21 15:05:31;;;;;;;4.7;4;;;;;;;;;;;;;
2020/03/21 15:07:56;;;;;;;4.4;4;;;;;;;;;;;;;
2020/03/21 15:10:21;;;;;;;4.4;4;;;;;;;;;;;;;
2020/03/21 15:13:00;;;;;;;5.1;3.8;;;;;;;;;;;;;
2020/03/21 15:15:11;;;;;;;5.3;4.1;;;;;;;;;;;;;
2020/03/21 15:17:36;;;;;;;4.4;4;;;;;;;;;;;;;
2020/03/21 15:20:01;;;;;;;4.9;4.4;;;;;;;;;;;;;
2020/03/21 15:22:26;;;;;;;5.9;4.6;;;;;;;;;;;;;
2020/03/21 15:24:51;;;;;;;5.5;4.4;;;;;;;;;;;;;
2020/03/21 15:27:17;;;;;;;4.3;3.9;;;;;;;;;;;;;
2020/03/21 15:29:42;;;;;;;4.4;4;;;;;;;;;;;;;
2020/03/21 15:32:07;;;;;;;4.4;3.9;;;;;;;;;;;;;
2020/03/21 15:34:32;;;;;;;4.4;4;;;;;;;;;;;;;
2020/03/21 15:36:57;;;;;;;4;3.6;;;;;;;;;;;;;
2020/03/21 15:39:23;;;;;;;4.2;3.8;;;;;;;;;;;;;
2020/03/21 15:41:48;;;;;;;3.7;3.3;;;;;;;;;;;;;
2020/03/21 15:44:13;;;;;;;3.6;3.3;;;;;;;;;;;;;
2020/03/21 15:46:38;;;;;;;3.6;3.3;;;;;;;;;;;;;
2020/03/21 15:49:03;;;;;;;4;3.4;;;;;;;;;;;;;
2020/03/21 15:51:28;;;;;;;4.4;3.2;;;;;;;;;;;;;
2020/03/21 15:53:53;;;;;;;3.9;3.5;;;;;;;;;;;;;
2020/03/21 15:56:19;;;;;;;3.6;3.3;;;;;;;;;;;;;
2020/03/21 15:58:44;;;;;;;3.5;3.2;;;;;;;;;;;;;
2020/03/21 16:01:08;;;;;;;4.4;3.1;;;;;;;;;;;;;
2020/03/21 16:03:34;;;;;;;3.2;2.8;;;;;;;;;;;;;
2020/03/21 16:05:59;;;;;;;3;2.5;;;;;;;;;;;;;
2020/03/21 16:08:24;;;;;;;3.1;2.8;;;;;;;;;;;;;
2020/03/21 16:10:49;;;;;;;3.1;2.6;;;;;;;;;;;;;
2020/03/21 16:13:14;;;;;;;3.3;3;;;;;;;;;;;;;
2020/03/21 16:15:40;;;;;;;3.6;3.1;;;;;;;;;;;;;
2020/03/21 16:18:05;;;;;;;3.3;2.8;;;;;;;;;;;;;
2020/03/21 16:20:30;;;;;;;3.1;2.8;;;;;;;;;;;;;
2020/03/21 16:22:55;;;;;;;3;2.7;;;;;;;;;;;;;
2020/03/21 16:25:21;;;;;;;2.8;2.4;;;;;;;;;;;;;
2020/03/21 16:27:46;;;;;;;2.7;2.5;;;;;;;;;;;;;
2020/03/21 16:30:11;;;;;;;3.8;2.6;;;;;;;;;;;;;
2020/03/21 16:32:36;;;;;;;2.8;2.6;;;;;;;;;;;;;
2020/03/21 16:35:01;;;;;;;2.5;2.2;;;;;;;;;;;;;
2020/03/21 16:37:26;;;;;;;2.6;2.4;;;;;;;;;;;;;
2020/03/21 16:39:51;;;;;;;2.7;2.5;;;;;;;;;;;;;
2020/03/21 16:42:16;;;;;;;2.5;2.3;;;;;;;;;;;;;
2020/03/21 16:44:41;;;;;;;2.8;2.6;;;;;;;;;;;;;
2020/03/21 16:47:07;;;;;;;3.4;2.9;;;;;;;;;;;;;
2020/03/21 16:49:32;;;;;;;3;2.7;;;;;;;;;;;;;
2020/03/21 16:51:57;;;;;;;3.5;3.1;;;;;;;;;;;;;
2020/03/21 16:54:22;;;;;;;3.1;2.8;;;;;;;;;;;;;
2020/03/21 16:56:48;;;;;;;2.7;2.5;;;;;;;;;;;;;
2020/03/21 16:59:12;;;;;;;3.6;3.3;;;;;;;;;;;;;
2020/03/21 17:01:38;;;;;;;3;2.6;;;;;;;;;;;;;
2020/03/21 17:04:03;;;;;;;2.9;2.6;;;;;;;;;;;;;
2020/03/21 17:06:28;;;;;;;3;2.7;;;;;;;;;;;;;
2020/03/21 17:08:53;;;;;;;3.2;2.9;;;;;;;;;;;;;
2020/03/21 17:11:18;;;;;;;3.3;3;;;;;;;;;;;;;
2020/03/21 17:13:43;;;;;;;2.6;2.4;;;;;;;;;;;;;
2020/03/21 17:16:09;;;;;;;2.7;2.5;;;;;;;;;;;;;
2020/03/21 17:18:36;;;;;;;2.7;2.5;;;;;;;;;;;;;
2020/03/21 17:20:59;;;;;;;2.9;2;;;;;;;;;;;;;
2020/03/21 17:23:26;;;;;;;2.4;2.2;;;;;;;;;;;;;
2020/03/21 17:25:49;;;;;;;2.4;2.2;;;;;;;;;;;;;
2020/03/21 17:28:14;;;;;;;2.5;2.3;;;;;;;;;;;;;
2020/03/21 17:30:39;;;;;;;3;2.3;;;;;;;;;;;;;
2020/03/21 17:33:04;;;;;;;2.5;2.3;;;;;;;;;;;;;
2020/03/21 17:35:29;;;;;;;2.4;2.2;;;;;;;;;;;;;
2020/03/21 17:37:54;;;;;;;2.4;2.2;;;;;;;;;;;;;
2020/03/21 17:40:20;;;;;;;2.6;2.3;;;;;;;;;;;;;
2020/03/21 17:42:45;;;;;;;2.7;2.5;;;;;;;;;;;;;
2020/03/21 17:45:10;;;;;;;3.2;2.9;;;;;;;;;;;;;
2020/03/21 17:47:35;;;;;;;2.9;2.6;;;;;;;;;;;;;
2020/03/21 17:50:00;;;;;;;3.7;2.8;;;;;;;;;;;;;
2020/03/21 17:52:25;;;;;;;3;2.7;;;;;;;;;;;;;
2020/03/21 17:54:50;;;;;;;2.7;2.5;;;;;;;;;;;;;
2020/03/21 17:57:16;;;;;;;2.8;2.6;;;;;;;;;;;;;
2020/03/21 17:59:41;;;;;;;2.7;2.5;;;;;;;;;;;;;
2020/03/21 18:02:06;;;;;;;2.4;2.2;;;;;;;;;;;;;
2020/03/21 18:04:31;;;;;;;2.4;2.2;;;;;;;;;;;;;
2020/03/21 18:06:56;;;;;;;2.7;2.5;;;;;;;;;;;;;
2020/03/21 18:09:21;;;;;;;2.9;2.7;;;;;;;;;;;;;
2020/03/21 18:11:46;;;;;;;2.6;2.4;;;;;;;;;;;;;
2020/03/21 18:14:11;;;;;;;2.5;2.3;;;;;;;;;;;;;
2020/03/21 18:16:37;;;;;;;2.6;2.4;;;;;;;;;;;;;
2020/03/21 18:19:02;;;;;;;2.9;2.5;;;;;;;;;;;;;
2020/03/21 18:21:27;;;;;;;2.9;2.7;;;;;;;;;;;;;
2020/03/21 18:23:52;;;;;;;3.8;3.1;;;;;;;;;;;;;
2020/03/21 18:26:19;;;;;;;3.2;2.9;;;;;;;;;;;;;
2020/03/21 18:28:44;;;;;;;3;2.7;;;;;;;;;;;;;
2020/03/21 18:31:07;;;;;;;3.2;2.9;;;;;;;;;;;;;
2020/03/21 18:33:33;;;;;;;3.1;2.6;;;;;;;;;;;;;
2020/03/21 18:35:58;;;;;;;2.7;2.5;;;;;;;;;;;;;
2020/03/21 18:38:23;;;;;;;2.7;2.5;;;;;;;;;;;;;
2020/03/21 18:40:48;;;;;;;3;2.6;;;;;;;;;;;;;
2020/03/21 18:43:13;;;;;;;3.1;2.6;;;;;;;;;;;;;
2020/03/21 18:45:38;;;;;;;2.7;2.5;;;;;;;;;;;;;
2020/03/21 18:48:03;;;;;;;2.9;2.6;;;;;;;;;;;;;
2020/03/21 18:50:46;;;;;;;3.1;2.8;;;;;;;;;;;;;
2020/03/21 18:53:37;;;;;;;3;2.7;;;;;;;;;;;;;
2020/03/21 18:55:19;;;;;;;2.7;2.5;;;;;;;;;;;;;
2020/03/21 19:00:09;;;;;;;2.6;2.4;;;;;;;;;;;;;
2020/03/21 19:02:34;;;;;;;2.4;2.2;;;;;;;;;;;;;
2020/03/21 19:04:59;;;;;;;3.1;2.6;;;;;;;;;;;;;
2020/03/21 19:07:25;;;;;;;2.8;2.5;;;;;;;;;;;;;
2020/03/21 19:09:50;;;;;;;3;2.7;;;;;;;;;;;;;
2020/03/21 19:12:15;;;;;;;2.6;2.4;;;;;;;;;;;;;
2020/03/21 19:14:40;;;;;;;2.7;2.5;;;;;;;;;;;;;
2020/03/21 19:17:05;;;;;;;2.9;2.7;;;;;;;;;;;;;
2020/03/21 19:19:30;;;;;;;2.9;2.7;;;;;;;;;;;;;
2020/03/21 19:21:55;;;;;;;3.1;2.8;;;;;;;;;;;;;
2020/03/21 19:24:20;;;;;;;3.4;3.1;;;;;;;;;;;;;
2020/03/21 19:26:45;;;;;;;3.2;2.9;;;;;;;;;;;;;
2020/03/21 19:29:11;;;;;;;3.1;2.9;;;;;;;;;;;;;
2020/03/21 19:31:37;;;;;;;3.4;3.1;;;;;;;;;;;;;
2020/03/21 19:34:01;;;;;;;3.3;3;;;;;;;;;;;;;
2020/03/21 19:36:26;;;;;;;3.4;3.1;;;;;;;;;;;;;
2020/03/21 19:38:51;;;;;;;3.1;2.8;;;;;;;;;;;;;
2020/03/21 19:41:17;;;;;;;2.8;2.6;;;;;;;;;;;;;
2020/03/21 19:43:42;;;;;;;3;2.8;;;;;;;;;;;;;
2020/03/21 19:46:07;;;;;;;3.2;2.9;;;;;;;;;;;;;
2020/03/21 19:48:32;;;;;;;3.5;3.2;;;;;;;;;;;;;
2020/03/21 19:50:57;;;;;;;4;3.6;;;;;;;;;;;;;
2020/03/21 19:53:22;;;;;;;4;3.6;;;;;;;;;;;;;
2020/03/21 19:55:48;;;;;;;3.7;3.4;;;;;;;;;;;;;
2020/03/21 19:58:12;;;;;;;3.8;3.4;;;;;;;;;;;;;